WIII/CGK METAR and TAF weather

Enter ICAO airport designator
Station Type Date Time Source
WIII METAR 2021/09/19 14:00 UTC NOAA

WIII 191400Z 19005KT 8000 SCT020 25/24 Q1012 NOSIG


Station Type Date Time Source
WIII Decoded METAR 2021/09/19 14:00 UTC NOAA

Jakarta / Soekarno-Hatta, Indonesia (WIII) 06-07S 106-39E 8M
Sep 19, 2021 - 10:00 AM EDT / 2021.09.19 1400 UTC
Wind: from the S (190 degrees) at 6 MPH (5 KT):0
Visibility: 4 mile(s):0
Sky conditions: partly cloudy
Temperature: 77 F (25 C)
Dew Point: 75 F (24 C)
Relative Humidity: 94%
Pressure (altimeter): 29.88 in. Hg (1012 hPa)
ob: WIII 191400Z 19005KT 8000 SCT020 25/24 Q1012 NOSIG
cycle: 14

Station Type Date Time Source
WIII TAF 2021/09/19 12:37 UTC NOAA

TAF WIII 191100Z 1912/2018 30010KT 8000 SCT020
TEMPO 1912/1916 3000 TSRA FEW015CB BKN020
BECMG 1916/1918 VRB05KT 5000 HZ
BECMG 2001/2003 30012KT 7000 NSW

Example: see airport list